Time;durP1;ratioP1;P1;durP2;ratioP2;P2;SDS_P1;SDS_P2;PMS_P1;PMS_P2;Temp;Humidity;BMP_temperature;BMP_pressure;BME280_temperature;BME280_humidity;BME280_pressure;Samples;Min_cycle;Max_cycle;Signal;HPM_P1;HPM_P2
2023/01/24 00:00:45;;;;;;;103.50;46.40;;;;;;;1.82;84.57;102399.69;130119;1278;114795;-67
2023/01/24 00:03:54;;;;;;;94.30;46.00;;;;;;;1.84;84.39;102395.66;130127;1278;115185;-67
2023/01/24 00:06:56;;;;;;;111.30;48.10;;;;;;;1.81;84.47;102397.73;130302;1278;115195;-67
2023/01/24 00:09:58;;;;;;;105.60;50.20;;;;;;;1.77;84.25;102395.71;130235;1267;115243;-68
2023/01/24 00:13:00;;;;;;;102.10;45.90;;;;;;;1.76;84.33;102395.15;129964;1260;115033;-69
2023/01/24 00:16:12;;;;;;;106.70;50.40;;;;;;;1.73;84.12;102396.33;130035;1278;114712;-69
2023/01/24 00:19:14;;;;;;;107.60;49.10;;;;;;;1.68;84.43;102395.70;130190;1261;129024;-68
2023/01/24 00:22:16;;;;;;;103.90;47.80;;;;;;;1.68;84.40;102397.61;130193;1260;115113;-67
2023/01/24 00:25:18;;;;;;;101.00;46.60;;;;;;;1.70;84.50;102396.23;130228;1267;114910;-68
2023/01/24 00:28:20;;;;;;;111.30;50.40;;;;;;;1.71;84.74;102397.34;129869;1263;114862;-68
2023/01/24 00:31:22;;;;;;;111.70;52.10;;;;;;;1.73;84.59;102396.85;130257;1278;115204;-69
2023/01/24 00:34:24;;;;;;;106.50;50.70;;;;;;;1.76;84.43;102393.92;130321;1278;115192;-68
2023/01/24 00:37:27;;;;;;;109.60;50.60;;;;;;;1.75;84.57;102392.14;129963;1264;114805;-68
2023/01/24 00:40:29;;;;;;;112.50;52.90;;;;;;;1.77;84.64;102397.29;130322;1261;114774;-70
2023/01/24 00:43:32;;;;;;;112.50;52.60;;;;;;;1.75;84.33;102401.99;130255;1263;114739;-67
2023/01/24 00:46:34;;;;;;;108.20;51.30;;;;;;;1.76;84.76;102405.36;130348;1254;114752;-68
2023/01/24 00:49:36;;;;;;;105.60;51.50;;;;;;;1.76;84.36;102412.77;129953;1269;114883;-67
2023/01/24 00:52:38;;;;;;;111.90;49.10;;;;;;;1.76;84.69;102415.93;130095;1270;114739;-68
2023/01/24 00:55:42;;;;;;;112.70;47.10;;;;;;;1.77;84.57;102419.66;130276;1257;114879;-68
2023/01/24 00:58:44;;;;;;;101.30;47.40;;;;;;;1.80;84.61;102423.60;129971;1268;114847;-68
2023/01/24 01:01:47;;;;;;;113.70;52.10;;;;;;;1.80;84.45;102424.86;130057;1261;114747;-67
2023/01/24 01:04:49;;;;;;;110.50;52.90;;;;;;;1.80;84.43;102428.20;130011;1277;115318;-68
2023/01/24 01:07:51;;;;;;;106.00;49.90;;;;;;;1.79;84.58;102422.89;130147;1260;114718;-68
2023/01/24 01:10:53;;;;;;;109.50;51.40;;;;;;;1.78;84.53;102422.52;130207;1257;114747;-67
2023/01/24 01:13:56;;;;;;;111.40;51.50;;;;;;;1.77;84.68;102421.95;130279;1267;115131;-67
2023/01/24 01:16:58;;;;;;;109.20;53.60;;;;;;;1.77;84.58;102423.52;130011;1254;115157;-67
2023/01/24 01:20:00;;;;;;;102.60;47.30;;;;;;;1.76;84.64;102423.16;129922;1277;114789;-67
2023/01/24 01:23:03;;;;;;;105.60;46.50;;;;;;;1.72;84.42;102422.20;130085;1260;115487;-67
2023/01/24 01:26:09;;;;;;;111.50;50.90;;;;;;;1.68;84.58;102426.16;130225;1259;115226;-68
2023/01/24 01:29:11;;;;;;;106.90;48.90;;;;;;;1.67;84.49;102423.33;130126;1261;115339;-68
2023/01/24 01:32:13;;;;;;;101.80;49.80;;;;;;;1.71;84.72;102424.81;130109;1268;114743;-67
2023/01/24 01:35:16;;;;;;;114.50;55.40;;;;;;;1.72;84.64;102423.97;129957;1278;115345;-69
2023/01/24 01:38:19;;;;;;;111.50;51.80;;;;;;;1.75;84.67;102430.54;130182;1263;114732;-67
2023/01/24 01:41:21;;;;;;;112.40;52.90;;;;;;;1.75;84.64;102432.83;129610;1278;114909;-68
2023/01/24 01:44:40;;;;;;;114.70;52.30;;;;;;;1.77;84.57;102434.12;130186;1257;114824;-68
2023/01/24 01:47:42;;;;;;;117.70;54.90;;;;;;;1.77;84.54;102428.30;130177;1254;115199;-69
2023/01/24 01:51:12;;;;;;;99.80;51.40;;;;;;;1.76;84.79;102424.05;130034;1270;114789;-68
2023/01/24 01:54:34;;;;;;;97.60;47.80;;;;;;;1.75;84.82;102422.24;129991;1260;114811;-68
2023/01/24 01:57:37;;;;;;;97.50;46.00;;;;;;;1.75;84.76;102419.08;130226;1257;115312;-69
2023/01/24 02:00:41;;;;;;;100.10;47.30;;;;;;;1.73;84.67;102411.65;130123;1260;114754;-68
2023/01/24 02:03:49;;;;;;;91.00;47.60;;;;;;;1.75;84.81;102409.73;130034;1270;114792;-67
2023/01/24 02:07:20;;;;;;;95.50;49.50;;;;;;;1.79;84.59;102406.66;129609;1264;114893;-67
2023/01/24 02:10:24;;;;;;;101.90;50.60;;;;;;;1.82;84.94;102394.75;130192;1260;114735;-69
2023/01/24 02:13:26;;;;;;;104.10;50.30;;;;;;;1.85;84.45;102390.73;130099;1278;114798;-67
2023/01/24 02:16:28;;;;;;;94.70;48.40;;;;;;;1.87;84.41;102391.31;129781;1278;114737;-68
2023/01/24 02:20:07;;;;;;;89.70;48.50;;;;;;;1.87;84.64;102393.27;130228;1278;115417;-69
2023/01/24 02:23:44;;;;;;;93.80;47.20;;;;;;;1.85;84.66;102392.70;130170;1261;115428;-69
2023/01/24 02:26:46;;;;;;;84.40;43.30;;;;;;;1.87;84.84;102394.67;130162;1261;114766;-69
2023/01/24 02:29:49;;;;;;;91.20;43.90;;;;;;;1.90;84.59;102391.02;130251;1259;114827;-70
2023/01/24 02:32:51;;;;;;;91.50;42.70;;;;;;;1.94;84.46;102390.76;130213;1278;114813;-69
2023/01/24 02:36:33;;;;;;;88.50;46.10;;;;;;;1.98;84.44;102390.14;130140;1257;114779;-70
2023/01/24 02:39:54;;;;;;;82.70;44.90;;;;;;;2.03;84.40;102386.88;129479;1269;116429;-67
2023/01/24 02:42:59;;;;;;;86.50;45.80;;;;;;;2.05;84.47;102377.23;130165;1260;114749;-68
2023/01/24 02:46:02;;;;;;;83.30;43.00;;;;;;;2.08;84.32;102376.93;130180;1259;114725;-67
2023/01/24 02:49:08;;;;;;;87.30;45.20;;;;;;;2.09;84.21;102382.41;129748;1278;114757;-68
2023/01/24 02:55:32;;;;;;;94.60;46.40;;;;;;;2.05;84.17;102383.57;129926;1258;115338;-68
2023/01/24 02:58:34;;;;;;;89.70;43.60;;;;;;;2.05;84.33;102384.98;130046;1259;115276;-68
2023/01/24 03:01:36;;;;;;;83.90;41.60;;;;;;;2.06;84.42;102380.25;130063;1259;114728;-68
2023/01/24 03:04:38;;;;;;;81.50;42.70;;;;;;;2.12;84.50;102385.13;130277;1257;114747;-68
2023/01/24 03:07:46;;;;;;;87.80;42.70;;;;;;;2.17;84.44;102386.45;130263;1257;114896;-69
2023/01/24 03:10:49;;;;;;;88.10;45.50;;;;;;;2.17;84.29;102385.38;129831;1277;127607;-68
2023/01/24 03:39:53;;;;;;;80.20;41.90;;;;;;;2.13;84.04;102403.83;129896;1257;114784;-66
2023/01/24 03:40:41;;;;;;;81.50;40.70;;;;;;;2.15;83.97;102399.99;129360;1278;114720;-68
2023/01/24 03:43:44;;;;;;;85.70;43.80;;;;;;;2.15;83.95;102402.80;130179;1278;114823;-67
2023/01/24 03:46:47;;;;;;;81.50;43.90;;;;;;;2.14;83.92;102395.39;130125;1278;115125;-67
2023/01/24 03:53:10;;;;;;;83.40;43.60;;;;;;;2.17;84.11;102396.48;130112;1260;114894;-67
2023/01/24 03:56:12;;;;;;;76.70;40.00;;;;;;;2.13;83.94;102396.25;130123;1270;114859;-67
2023/01/24 03:59:15;;;;;;;88.50;43.70;;;;;;;2.09;83.80;102400.74;129901;1255;114823;-67
2023/01/24 04:02:17;;;;;;;86.30;42.80;;;;;;;2.05;83.86;102402.26;130185;1259;114661;-67
2023/01/24 04:05:20;;;;;;;78.20;40.40;;;;;;;2.04;84.07;102405.59;130144;1259;114776;-67
2023/01/24 04:08:22;;;;;;;74.70;38.80;;;;;;;2.09;84.19;102406.73;130175;1260;114738;-68
2023/01/24 04:11:24;;;;;;;78.10;41.60;;;;;;;2.12;83.99;102411.05;130180;1259;115277;-67
2023/01/24 04:14:26;;;;;;;83.00;43.70;;;;;;;2.16;84.24;102408.63;130196;1259;114882;-67
2023/01/24 04:17:28;;;;;;;83.80;42.70;;;;;;;2.15;83.85;102406.33;130209;1258;114719;-66
2023/01/24 04:20:33;;;;;;;93.60;49.70;;;;;;;2.15;84.12;102403.86;130118;1278;114734;-67
2023/01/24 04:23:37;;;;;;;128.10;58.90;;;;;;;2.17;84.11;102408.48;129856;1278;116424;-67
2023/01/24 04:26:39;;;;;;;142.80;66.00;;;;;;;2.17;84.02;102407.95;129964;1264;114879;-68
2023/01/24 04:29:41;;;;;;;158.60;66.70;;;;;;;2.17;84.08;102402.48;130197;1259;115231;-68
2023/01/24 04:32:43;;;;;;;145.60;65.40;;;;;;;2.17;84.21;102406.55;129956;1260;114811;-68
2023/01/24 04:35:45;;;;;;;132.80;59.50;;;;;;;2.15;83.84;102407.73;129854;1278;114980;-67
2023/01/24 04:38:47;;;;;;;112.90;56.50;;;;;;;2.12;83.89;102414.20;130036;1278;115276;-68
2023/01/24 04:41:49;;;;;;;104.10;51.00;;;;;;;2.11;83.83;102419.46;130150;1260;114748;-67
2023/01/24 04:44:51;;;;;;;91.90;47.10;;;;;;;2.13;84.14;102418.27;130159;1259;115199;-67
2023/01/24 04:47:54;;;;;;;95.40;48.20;;;;;;;2.13;83.84;102420.22;130174;1278;114810;-67
2023/01/24 04:51:00;;;;;;;87.10;45.70;;;;;;;2.14;83.95;102425.02;130172;1268;114981;-68
2023/01/24 04:54:02;;;;;;;93.90;45.40;;;;;;;2.14;83.91;102424.99;129847;1273;114789;-67
2023/01/24 04:57:05;;;;;;;101.70;48.70;;;;;;;2.12;83.87;102426.71;130107;1260;114740;-66
2023/01/24 05:00:08;;;;;;;89.60;45.60;;;;;;;2.10;84.05;102427.90;130102;1275;114791;-68
2023/01/24 05:03:10;;;;;;;90.30;44.40;;;;;;;2.08;83.90;102428.75;130203;1259;114767;-68
2023/01/24 05:06:12;;;;;;;93.60;42.50;;;;;;;2.05;84.00;102429.77;130169;1256;114734;-67
2023/01/24 05:09:15;;;;;;;93.80;42.80;;;;;;;2.05;83.99;102424.13;129832;1264;114792;-67
2023/01/24 05:12:17;;;;;;;91.60;44.50;;;;;;;2.07;84.15;102425.73;130091;1262;114791;-67
2023/01/24 05:15:21;;;;;;;98.60;47.90;;;;;;;2.08;84.10;102428.04;130376;1256;114744;-67
2023/01/24 05:18:24;;;;;;;87.60;43.60;;;;;;;2.12;84.33;102433.23;129739;1256;114725;-67
2023/01/24 05:21:26;;;;;;;93.50;49.50;;;;;;;2.15;83.90;102439.64;130067;1257;114728;-67
2023/01/24 05:24:28;;;;;;;87.80;44.80;;;;;;;2.14;84.08;102439.10;130230;1277;114713;-68
2023/01/24 05:27:30;;;;;;;95.60;47.20;;;;;;;2.13;83.93;102435.20;130199;1254;115183;-67
2023/01/24 05:30:32;;;;;;;92.70;46.10;;;;;;;2.11;83.89;102436.92;130219;1273;115231;-69
2023/01/24 05:33:35;;;;;;;89.80;44.70;;;;;;;2.05;83.66;102436.97;129931;1258;114714;-69
2023/01/24 05:36:40;;;;;;;96.50;45.40;;;;;;;2.00;83.99;102431.39;130247;1260;114731;-67
2023/01/24 05:39:42;;;;;;;93.30;44.70;;;;;;;1.97;83.74;102436.84;130195;1253;114761;-67
2023/01/24 05:42:44;;;;;;;79.90;40.10;;;;;;;1.97;83.74;102439.81;130215;1257;114745;-67
2023/01/24 05:45:46;;;;;;;80.10;41.00;;;;;;;1.96;83.95;102439.27;130290;1277;128877;-68
2023/01/24 05:48:49;;;;;;;79.30;41.20;;;;;;;1.95;83.81;102443.66;130209;1277;114755;-67
2023/01/24 05:51:51;;;;;;;85.10;43.10;;;;;;;1.96;84.07;102441.90;130220;1255;114740;-70
2023/01/24 05:54:54;;;;;;;83.20;43.40;;;;;;;1.95;84.07;102446.64;130189;1278;114770;-68
2023/01/24 05:57:59;;;;;;;85.40;43.70;;;;;;;1.95;83.97;102451.02;130142;1278;114781;-68
2023/01/24 06:01:01;;;;;;;90.00;45.70;;;;;;;1.93;84.06;102448.18;130093;1259;114782;-68
2023/01/24 06:04:03;;;;;;;85.10;46.60;;;;;;;1.93;84.03;102452.25;129956;1279;114824;-68
2023/01/24 06:07:06;;;;;;;91.70;45.00;;;;;;;1.92;83.98;102453.10;130043;1256;115681;-68
2023/01/24 06:10:09;;;;;;;90.60;44.80;;;;;;;1.90;84.07;102457.28;129781;1261;114850;-67
2023/01/24 06:13:11;;;;;;;87.00;42.40;;;;;;;1.90;84.11;102458.33;129996;1256;114802;-68
2023/01/24 06:16:15;;;;;;;87.10;41.00;;;;;;;1.91;84.02;102462.07;129907;1261;115062;-66
2023/01/24 06:19:18;;;;;;;82.90;40.60;;;;;;;1.91;84.20;102461.36;130044;1260;114790;-67
2023/01/24 06:22:38;;;;;;;83.10;41.70;;;;;;;1.92;83.95;102467.37;129712;1259;114715;-68
2023/01/24 06:25:40;;;;;;;82.70;42.30;;;;;;;1.93;84.05;102468.09;130140;1278;115283;-68
2023/01/24 06:28:43;;;;;;;82.60;42.70;;;;;;;1.95;84.21;102465.33;130066;1262;114793;-67
2023/01/24 06:32:03;;;;;;;88.70;44.00;;;;;;;1.97;84.10;102470.48;129888;1278;114770;-68
2023/01/24 06:35:31;;;;;;;90.10;45.10;;;;;;;1.98;84.01;102472.09;130321;1259;115487;-68
2023/01/24 06:38:33;;;;;;;91.70;47.20;;;;;;;1.97;83.73;102474.71;130106;1254;128903;-68
2023/01/24 06:41:36;;;;;;;89.20;44.50;;;;;;;1.94;84.11;102475.19;130254;1259;114804;-67
2023/01/24 06:44:38;;;;;;;77.90;38.40;;;;;;;1.93;84.09;102482.89;130204;1259;114711;-67
2023/01/24 06:47:42;;;;;;;176.70;84.30;;;;;;;1.90;83.83;102488.48;130129;1278;114767;-67
2023/01/24 06:50:45;;;;;;;79.00;40.50;;;;;;;1.91;84.04;102491.84;130286;1260;114719;-67
2023/01/24 06:53:47;;;;;;;84.10;42.40;;;;;;;1.95;84.13;102494.75;130139;1275;114842;-67
2023/01/24 06:56:49;;;;;;;84.80;44.10;;;;;;;1.97;83.99;102499.71;129993;1278;127563;-67
2023/01/24 06:59:51;;;;;;;85.30;45.00;;;;;;;2.00;84.22;102499.80;130104;1259;115266;-66
2023/01/24 07:03:00;;;;;;;85.90;44.40;;;;;;;2.04;84.11;102501.64;130117;1269;114733;-67
2023/01/24 07:06:02;;;;;;;91.10;45.60;;;;;;;2.05;83.97;102505.36;129874;1263;114770;-67
2023/01/24 07:09:05;;;;;;;97.20;46.80;;;;;;;2.07;84.07;102502.20;130183;1254;114858;-66
2023/01/24 07:12:07;;;;;;;83.80;44.00;;;;;;;2.09;83.92;102501.39;130272;1257;115265;-67
2023/01/24 07:15:10;;;;;;;84.00;40.40;;;;;;;2.08;84.14;102501.54;130344;1273;114910;-66
2023/01/24 07:18:13;;;;;;;80.40;39.80;;;;;;;2.07;84.07;102502.23;129942;1262;128012;-67
2023/01/24 07:21:17;;;;;;;79.40;40.20;;;;;;;2.08;83.97;102499.42;130204;1277;115966;-68
2023/01/24 07:24:25;;;;;;;82.10;41.30;;;;;;;2.12;84.05;102502.86;130101;1272;114904;-68
2023/01/24 07:27:28;;;;;;;78.80;41.30;;;;;;;2.17;83.99;102505.06;130350;1259;114699;-67
2023/01/24 07:30:30;;;;;;;79.70;42.60;;;;;;;2.18;83.93;102502.98;130094;1259;114891;-69
2023/01/24 07:33:32;;;;;;;80.20;41.90;;;;;;;2.19;83.86;102504.95;130196;1259;114789;-59
2023/01/24 07:36:35;;;;;;;82.30;42.40;;;;;;;2.21;84.20;102503.40;129438;1272;128625;-59
2023/01/24 07:39:37;;;;;;;88.10;45.20;;;;;;;2.25;83.82;102503.65;129853;1270;115406;-59
2023/01/24 07:42:39;;;;;;;83.20;45.30;;;;;;;2.27;83.99;102505.81;129726;1265;212093;-59
2023/01/24 07:45:45;;;;;;;80.80;42.30;;;;;;;2.30;83.96;102511.16;129871;1277;114798;-61
2023/01/24 07:48:47;;;;;;;80.60;42.20;;;;;;;2.30;83.72;102508.69;129960;1253;115326;-60
2023/01/24 07:51:50;;;;;;;75.00;38.50;;;;;;;2.29;83.66;102509.73;129940;1258;114856;-60
2023/01/24 07:54:52;;;;;;;76.80;40.20;;;;;;;2.31;83.71;102510.48;129916;1261;114728;-62
2023/01/24 07:57:59;;;;;;;86.60;42.60;;;;;;;2.38;83.89;102511.50;129927;1257;114719;-62
2023/01/24 08:01:01;;;;;;;88.10;44.10;;;;;;;2.45;83.69;102510.23;129816;1253;116587;-60
2023/01/24 08:04:04;;;;;;;86.40;43.70;;;;;;;2.46;83.68;102506.73;130000;1259;114817;-62
2023/01/24 08:07:18;;;;;;;91.50;46.60;;;;;;;2.51;83.81;102504.53;129962;1256;114728;-61
2023/01/24 08:10:21;;;;;;;94.10;46.40;;;;;;;2.59;83.87;102505.03;129916;1259;114782;-62
2023/01/24 08:13:23;;;;;;;87.80;46.30;;;;;;;2.70;83.98;102509.30;129765;1277;114737;-60
2023/01/24 08:16:26;;;;;;;99.10;49.80;;;;;;;2.74;83.49;102512.55;129929;1276;114743;-62
2023/01/24 08:19:28;;;;;;;88.40;45.60;;;;;;;2.77;83.63;102516.67;130057;1257;115217;-60
2023/01/24 08:22:31;;;;;;;84.50;41.10;;;;;;;2.83;83.63;102516.95;129951;1254;114781;-61
2023/01/24 08:25:33;;;;;;;76.20;39.40;;;;;;;2.86;83.31;102520.20;129923;1257;115163;-61
2023/01/24 08:28:36;;;;;;;77.50;39.80;;;;;;;2.88;83.22;102519.89;129747;1259;114819;-60
2023/01/24 08:31:38;;;;;;;96.00;50.30;;;;;;;2.90;83.05;102520.42;129824;1257;114754;-60
2023/01/24 08:34:40;;;;;;;86.10;44.10;;;;;;;2.93;83.01;102519.96;129820;1270;115363;-62
2023/01/24 08:37:43;;;;;;;83.70;41.60;;;;;;;3.02;83.41;102519.41;129890;1254;115193;-62
2023/01/24 08:40:46;;;;;;;86.20;42.20;;;;;;;3.10;83.36;102518.13;129958;1259;114739;-64
2023/01/24 08:43:48;;;;;;;82.20;41.80;;;;;;;3.15;82.89;102517.52;129899;1272;115167;-62
2023/01/24 08:46:50;;;;;;;81.90;42.20;;;;;;;3.18;83.02;102520.92;129897;1277;115421;-60
2023/01/24 08:49:52;;;;;;;78.70;42.30;;;;;;;3.25;82.97;102525.80;129886;1264;114703;-60
2023/01/24 08:52:56;;;;;;;83.40;41.00;;;;;;;3.23;82.41;102524.36;129813;1259;114729;-62
2023/01/24 08:55:58;;;;;;;78.90;40.00;;;;;;;3.20;82.52;102528.20;129945;1255;114715;-60
2023/01/24 08:59:01;;;;;;;80.70;40.00;;;;;;;3.27;82.92;102529.36;129953;1256;116447;-62
2023/01/24 09:02:06;;;;;;;;;;;;;;;3.37;82.89;102533.08;129655;1270;115106;-63
2023/01/24 09:05:09;;;;;;;104.70;55.00;;;;;;;3.41;82.44;102534.20;129886;1270;114854;-61
2023/01/24 09:08:11;;;;;;;86.70;44.60;;;;;;;3.40;82.10;102539.30;129924;1269;114836;-62
2023/01/24 09:11:14;;;;;;;83.80;44.80;;;;;;;3.38;82.28;102541.39;129941;1257;114752;-62
2023/01/24 09:14:16;;;;;;;89.20;48.90;;;;;;;3.38;82.08;102544.02;129992;1277;114783;-61
2023/01/24 09:17:18;;;;;;;104.10;54.40;;;;;;;3.29;81.68;102549.01;129916;1259;114717;-62
2023/01/24 09:20:21;;;;;;;98.60;52.20;;;;;;;3.22;81.86;102546.24;129849;1277;114715;-59
2023/01/24 09:23:23;;;;;;;89.40;45.00;;;;;;;3.18;81.76;102547.06;129885;1277;115324;-61
2023/01/24 09:26:25;;;;;;;138.90;69.10;;;;;;;3.18;82.04;102545.98;129960;1258;114792;-61
2023/01/24 09:29:28;;;;;;;76.20;41.10;;;;;;;3.19;81.98;102549.54;129722;1264;127753;-59
2023/01/24 09:32:30;;;;;;;83.00;42.00;;;;;;;3.21;82.03;102549.05;129969;1270;115099;-60
2023/01/24 09:35:32;;;;;;;102.10;52.50;;;;;;;3.20;82.00;102550.08;129846;1258;114819;-61
2023/01/24 09:38:35;;;;;;;100.30;53.90;;;;;;;3.23;82.21;102544.31;130033;1257;114808;-60
2023/01/24 09:42:03;;;;;;;271.60;133.30;;;;;;;3.29;82.09;102542.46;129873;1257;115340;-61
2023/01/24 09:45:46;;;;;;;108.70;55.70;;;;;;;3.39;82.35;102538.75;129905;1270;114843;-61
2023/01/24 09:48:52;;;;;;;114.00;57.50;;;;;;;3.46;81.89;102538.17;129761;1257;128452;-61
2023/01/24 09:51:54;;;;;;;106.60;57.20;;;;;;;3.46;82.09;102534.80;129955;1257;115396;-61
2023/01/24 09:55:12;;;;;;;82.00;43.10;;;;;;;3.54;81.97;102535.10;129859;1276;114721;-63
2023/01/24 09:58:36;;;;;;;118.00;60.20;;;;;;;3.55;81.91;102534.59;129740;1275;114996;-61
2023/01/24 10:01:40;;;;;;;98.70;50.10;;;;;;;3.58;81.57;102528.27;129685;1259;115828;-62
2023/01/24 10:04:43;;;;;;;99.90;51.40;;;;;;;3.60;81.55;102523.55;129920;1254;129654;-62
2023/01/24 10:07:48;;;;;;;104.70;55.00;;;;;;;3.64;81.52;102520.95;129944;1257;114755;-61
2023/01/24 10:11:18;;;;;;;81.40;42.50;;;;;;;3.69;81.55;102515.20;129717;1258;115107;-63
2023/01/24 10:14:52;;;;;;;98.50;52.10;;;;;;;3.81;81.87;102510.23;129867;1254;114704;-61
2023/01/24 10:18:01;;;;;;;86.00;44.10;;;;;;;3.90;81.73;102509.13;129895;1253;114715;-61
2023/01/24 10:21:31;;;;;;;96.80;48.00;;;;;;;3.99;81.63;102509.77;129794;1277;128937;-60
2023/01/24 10:24:37;;;;;;;87.30;44.80;;;;;;;4.04;80.88;102511.08;129664;1271;115223;-61
2023/01/24 10:27:45;;;;;;;84.50;45.00;;;;;;;3.96;80.79;102513.80;129773;1255;114826;-62
2023/01/24 10:30:53;;;;;;;88.50;44.30;;;;;;;3.99;81.20;102513.67;129644;1254;114814;-61
2023/01/24 10:33:59;;;;;;;84.50;43.40;;;;;;;4.12;81.31;102514.20;129899;1270;114786;-61
2023/01/24 10:37:28;;;;;;;116.50;57.70;;;;;;;4.16;80.65;102508.75;129701;1275;128050;-62
2023/01/24 10:40:30;;;;;;;83.90;43.70;;;;;;;4.21;80.83;102505.64;129767;1262;115047;-63
2023/01/24 10:43:33;;;;;;;82.80;43.60;;;;;;;4.26;80.81;102504.29;129865;1275;115118;-62
2023/01/24 10:46:58;;;;;;;91.80;46.80;;;;;;;4.29;80.58;102506.10;129935;1256;115337;-61
2023/01/24 10:50:03;;;;;;;91.80;45.60;;;;;;;4.26;80.27;102504.45;129843;1262;114776;-62
2023/01/24 10:53:14;;;;;;;73.90;40.60;;;;;;;4.25;80.78;102504.98;129891;1274;129183;-61
2023/01/24 10:56:20;;;;;;;75.70;41.50;;;;;;;4.27;80.45;102507.30;129744;1254;115156;-63
2023/01/24 10:59:24;;;;;;;74.90;42.00;;;;;;;4.28;80.33;102502.55;129731;1262;114850;-61
2023/01/24 11:02:31;;;;;;;73.20;41.40;;;;;;;4.33;80.65;102496.41;129901;1270;114805;-61
2023/01/24 11:05:46;;;;;;;70.90;38.10;;;;;;;4.36;80.72;102491.14;129883;1254;114688;-62
2023/01/24 11:08:54;;;;;;;69.50;39.30;;;;;;;4.46;80.53;102490.20;129800;1273;128986;-62
2023/01/24 11:11:57;;;;;;;162.70;84.50;;;;;;;4.57;80.87;102486.95;129727;1262;115266;-60
2023/01/24 11:14:59;;;;;;;138.00;70.20;;;;;;;4.63;80.09;102485.95;129712;1275;114821;-61
2023/01/24 11:18:13;;;;;;;79.30;43.30;;;;;;;4.60;79.45;102486.98;130164;1275;114778;-61
2023/01/24 11:21:17;;;;;;;138.50;78.90;;;;;;;4.55;79.47;102481.80;129674;1262;114725;-61
2023/01/24 11:24:21;;;;;;;127.30;74.00;;;;;;;4.53;79.51;102480.36;129982;1270;126544;-61
2023/01/24 11:27:23;;;;;;;82.30;43.30;;;;;;;4.53;79.55;102482.30;129866;1271;115241;-61
2023/01/24 11:30:28;;;;;;;64.00;35.60;;;;;;;4.56;79.72;102479.86;130060;1257;115253;-62
2023/01/24 11:33:39;;;;;;;71.60;39.60;;;;;;;4.49;79.04;102474.30;130002;1259;115454;-60
2023/01/24 11:37:17;;;;;;;73.90;38.50;;;;;;;4.41;79.44;102474.20;129754;1273;114908;-63
2023/01/24 11:40:20;;;;;;;83.50;42.80;;;;;;;4.43;79.70;102470.52;129834;1275;127556;-60
2023/01/24 11:43:45;;;;;;;78.30;42.20;;;;;;;4.48;79.94;102472.52;129944;1277;115167;-62
2023/01/24 11:46:59;;;;;;;84.00;45.90;;;;;;;4.50;79.45;102472.52;129809;1261;114789;-63
2023/01/24 11:50:19;;;;;;;85.80;47.40;;;;;;;4.45;79.50;102476.21;129648;1260;116376;-63
2023/01/24 11:53:24;;;;;;;88.00;47.00;;;;;;;4.45;79.65;102477.45;130022;1259;114809;-62
2023/01/24 11:56:27;;;;;;;;;;;;;;;4.47;79.92;102475.70;129918;1253;128200;-62
2023/01/24 11:59:50;;;;;;;89.70;46.30;;;;;;;4.53;80.11;102476.29;129805;1272;115329;-62
2023/01/24 12:03:13;;;;;;;89.10;48.60;;;;;;;4.57;79.86;102477.74;130079;1264;114958;-68
2023/01/24 12:06:45;;;;;;;89.90;48.40;;;;;;;4.54;79.85;102479.51;130099;1259;114935;-67
2023/01/24 12:10:13;;;;;;;98.60;49.00;;;;;;;4.52;79.56;102473.45;129864;1253;114802;-67
2023/01/24 12:13:18;;;;;;;105.30;52.30;;;;;;;4.43;79.26;102476.36;129776;1277;128438;-66
2023/01/24 12:16:42;;;;;;;93.10;47.00;;;;;;;4.38;79.45;102468.88;129794;1275;115259;-67
2023/01/24 12:20:32;;;;;;;89.40;44.80;;;;;;;4.37;79.53;102471.34;129693;1263;114818;-66
2023/01/24 12:23:43;;;;;;;90.40;46.70;;;;;;;4.33;79.28;102468.10;129534;1264;114844;-66
2023/01/24 12:26:52;;;;;;;89.20;43.50;;;;;;;4.29;79.13;102466.65;129640;1265;115106;-68
2023/01/24 12:30:13;;;;;;;81.50;42.20;;;;;;;4.20;79.34;102463.36;129455;1268;127848;-67
2023/01/24 12:33:23;;;;;;;84.60;42.60;;;;;;;4.15;79.23;102462.77;129702;1283;116628;-67
2023/01/24 12:36:30;;;;;;;81.20;44.20;;;;;;;4.13;79.68;102463.45;129721;1259;114908;-67
2023/01/24 12:39:42;;;;;;;92.00;48.00;;;;;;;4.15;80.06;102461.72;129305;1264;114908;-67
2023/01/24 12:43:06;;;;;;;78.60;38.20;;;;;;;4.16;79.74;102465.96;129379;1283;114908;-67
2023/01/24 12:46:19;;;;;;;82.80;42.00;;;;;;;4.13;79.68;102468.93;129914;1265;127865;-66
2023/01/24 12:49:34;;;;;;;84.60;44.80;;;;;;;4.12;79.60;102466.64;129381;1263;115285;-67
2023/01/24 12:53:11;;;;;;;78.80;39.90;;;;;;;4.10;79.75;102468.36;129642;1273;115600;-66
2023/01/24 12:56:19;;;;;;;87.20;52.20;;;;;;;4.03;79.56;102465.98;130107;1265;114860;-66
2023/01/24 12:59:29;;;;;;;85.60;42.50;;;;;;;3.98;79.74;102467.33;129806;1263;116438;-67
2023/01/24 13:02:44;;;;;;;77.70;41.10;;;;;;;3.94;79.86;102466.22;129711;1260;129828;-64
2023/01/24 13:06:00;;;;;;;82.60;42.00;;;;;;;3.93;80.00;102466.20;129658;1256;114796;-67
2023/01/24 13:09:23;;;;;;;100.30;47.40;;;;;;;3.91;80.14;102464.77;130221;1259;114728;-66
2023/01/24 13:12:27;;;;;;;96.50;44.20;;;;;;;3.93;80.30;102463.91;129762;1259;114720;-67
2023/01/24 13:16:24;;;;;;;84.00;41.40;;;;;;;3.93;80.10;102461.96;130061;1278;114768;-67
2023/01/24 13:19:44;;;;;;;74.70;37.50;;;;;;;3.93;80.03;102459.32;129543;1263;128518;-66
2023/01/24 13:22:52;;;;;;;74.30;39.60;;;;;;;3.94;80.10;102453.50;129367;1266;115244;-67
2023/01/24 13:26:00;;;;;;;77.50;39.50;;;;;;;3.92;79.91;102455.77;128892;1270;114979;-65
2023/01/24 13:29:31;;;;;;;90.70;44.00;;;;;;;3.89;80.02;102459.62;128983;1271;114946;-65
2023/01/24 13:32:39;;;;;;;85.70;46.30;;;;;;;3.88;80.24;102453.95;128989;1268;114853;-66
2023/01/24 13:35:50;;;;;;;78.60;41.30;;;;;;;3.90;80.15;102452.02;129305;1267;128876;-66
2023/01/24 13:38:52;;;;;;;84.30;41.80;;;;;;;3.86;80.20;102452.17;129118;1270;115216;-68
2023/01/24 13:42:04;;;;;;;86.20;44.70;;;;;;;3.84;80.39;102455.12;129501;1282;114898;-66
2023/01/24 13:45:39;;;;;;;79.60;41.40;;;;;;;3.79;80.38;102456.31;129415;1262;114821;-65
2023/01/24 13:48:41;;;;;;;76.70;40.90;;;;;;;3.76;80.38;102456.43;129280;1262;114863;-66
2023/01/24 13:51:46;;;;;;;76.20;41.70;;;;;;;3.77;80.44;102459.45;129139;1268;115333;-65
2023/01/24 13:54:48;;;;;;;87.80;44.00;;;;;;;3.80;80.66;102460.38;129963;1259;114721;-67
2023/01/24 13:58:07;;;;;;;81.00;42.50;;;;;;;3.84;80.58;102465.73;130019;1259;114822;-66
2023/01/24 14:01:15;;;;;;;84.70;45.30;;;;;;;3.85;80.68;102469.80;129772;1256;115463;-67
2023/01/24 14:04:38;;;;;;;84.80;44.70;;;;;;;3.86;80.72;102464.53;129961;1278;114814;-66
2023/01/24 14:07:41;;;;;;;82.80;44.80;;;;;;;3.87;80.87;102459.06;129758;1278;129068;-65
2023/01/24 14:11:09;;;;;;;91.50;44.60;;;;;;;3.91;80.85;102461.41;129632;1268;114788;-68
2023/01/24 14:14:31;;;;;;;87.00;47.40;;;;;;;3.92;80.76;102463.90;129702;1278;114800;-65
2023/01/24 14:17:36;;;;;;;85.80;44.90;;;;;;;3.91;80.69;102461.77;129783;1257;115487;-65
2023/01/24 14:20:47;;;;;;;;;;;;;;;3.89;80.62;102465.62;129593;1259;115371;-67
2023/01/24 14:23:55;;;;;;;107.60;56.10;;;;;;;3.88;80.68;102469.67;129521;1278;128371;-65
2023/01/24 14:27:00;;;;;;;96.70;49.70;;;;;;;3.88;80.51;102474.80;129759;1278;115192;-66
2023/01/24 14:30:55;;;;;;;101.60;49.10;;;;;;;3.87;80.71;102472.86;129758;1259;114728;-66